O37 weather

Haigh Field
Orland, California, United States

Public forecast

Using degrees Fahrenheit for public forecast. Weather courtesy of forecast.io.

Closest aviation weather report (METAR) to Haigh Field

Closest report is Chico Municipal Airport, 14.1 nm (26.0 km) ENE. Retrieved 2019/10/19 17:47 UTC (28 minutes ago):

KCIC 191747Z 13009KT 10SM BKN065 BKN100 17/05 A3006

Closest aviation forecast (TAF) to Haigh Field

Closest forecast is Red Bluff Municipal Airport, 26.2 nm (48.6 km) N. Retrieved 2019/10/19 18:22 UTC (0 seconds ago):

TAF KRBL 191720Z 1918/2018 18006KT P6SM VCSH OVC060 FM192000 18007KT P6SM SCT060 OVC250 FM200000 32005KT P6SM BKN250